Flight Track Log - Related Links

Times and Time Zones

All times are in EDT time to prevent confusion due to time zone crossing. See the N830QS flight status page for this flight to view local times or setup timezone preferences in your user account.

Time Position Orientation Groundspeed Altitude Reporting Facility
EDT Latitude Longitude Course Direction KTS MPH feet Rate Location/Type
Mon 11:02:40 AM 39.5333 -104.8833 285° West 207 238 8,500  Level Denver TRACON
Mon 11:03:40 AM 39.5667 -104.9667 297° West 254 292 11,000 2,374 Climbing Denver TRACON
Mon 11:04:11 AM 39.5822 -105.0067 297° West 269 310 12,100 2,645 Climbing Denver Center
Mon 11:05:13 AM 39.6172 -105.1089 294° West 305 351 15,100 1,839 Climbing Denver Center
Mon 11:06:15 AM 39.6797 -105.1947 313° West 325 374 15,900 1,355 Climbing Denver Center
Mon 11:07:17 AM 39.7728 -105.2206 348° North 344 396 17,900 2,274 Climbing Denver Center
Mon 11:08:00 AM 39.7074 -105.5298 285° West  Level Estimated
Mon 11:08:19 AM 39.8725 -105.2089 North 357 411 20,600  Level Denver Center
Mon 11:09:21 AM 39.9728 -105.2117 359° North 366 421 23,100 2,323 Climbing Denver Center
Mon 11:10:23 AM 40.0022 -105.3294 288° West 349 402 25,400 1,403 Climbing Denver Center
Mon 11:11:25 AM 39.9914 -105.4583 264° West 371 427 26,000 581 Climbing Denver Center
Mon 11:12:27 AM 39.9928 -105.6014 271° West 403 464 26,600 629 Climbing Denver Center
Mon 11:13:29 AM 39.9942 -105.7458 271° West 396 456 27,300 677 Climbing Denver Center
Mon 11:14:31 AM 39.9961 -105.8889 271° West 389 448 28,000 1,065 Climbing Denver Center
Mon 11:15:33 AM 39.9997 -106.0658 272° West 405 466 29,500 2,516 Climbing Denver Center
Mon 11:16:35 AM 39.9981 -106.1928 269° West 359 413 33,200 2,177 Climbing Denver Center
Mon 11:17:37 AM 40.0031 -106.3136 273° West 337 388 34,000 387 Climbing Denver Center
Mon 11:18:39 AM 40.0028 -106.4458 270° West 361 415 34,000  Level Denver Center
Mon 11:19:41 AM 40.0103 -106.5911 274° West 379 436 34,000  Level Denver Center
Mon 11:20:44 AM 40.0178 -106.7467 274° West 385 443 34,000  Level Denver Center
Mon 11:21:46 AM 40.0244 -106.8794 274° West 384 442 34,000  Level Denver Center
Mon 11:22:48 AM 40.0308 -107.0358 273° West 386 444 34,000  Level Denver Center
Mon 11:23:50 AM 40.0372 -107.1714 274° West 392 451 34,000  Level Denver Center
Mon 11:24:52 AM 40.0442 -107.3272 273° West 389 448 34,000  Level Denver Center
Mon 11:26:06 AM 40.0494 -107.4603 273° West 385 443 34,000  Level Denver Center
Mon 11:27:08 AM 40.0575 -107.6369 273° West 385 443 34,000  Level Denver Center
Mon 11:28:10 AM 40.0614 -107.7703 272° West 384 442 34,000  Level Denver Center
Mon 11:29:12 AM 40.0681 -107.9253 273° West 384 442 34,000  Level Denver Center
Mon 11:30:14 AM 40.0739 -108.0578 273° West 384 442 34,000  Level Denver Center
Mon 11:31:16 AM 40.0803 -108.2111 273° West 380 437 34,000  Level Denver Center
Mon 11:32:18 AM 40.0869 -108.3453 274° West 384 442 34,000  Level Denver Center
Mon 11:32:49 AM 40.0903 -108.4125 274° West 386 444 34,000  Level Salt Lake Center
Mon 11:33:51 AM 40.0958 -108.5686 273° West 390 449 34,000  Level Salt Lake Center
Mon 11:34:22 AM 40.0994 -108.6350 274° West 388 447 34,000  Level Denver Center
Mon 11:35:25 AM 40.1050 -108.7922 273° West 390 449 34,000  Level Denver Center
Mon 11:36:27 AM 40.1100 -108.9267 273° West 390 449 34,000  Level Denver Center
Mon 11:36:57 AM 40.1136 -109.0161 273° West 389 448 34,000  Level Salt Lake Center
Mon 11:37:59 AM 40.1178 -109.1506 272° West 389 448 34,000  Level Salt Lake Center
Mon 11:38:31 AM 40.1203 -109.2186 273° West 392 451 34,000  Level Denver Center
Mon 11:39:33 AM 40.1258 -109.3747 273° West 388 447 34,000  Level Denver Center
Mon 11:40:03 AM 40.1283 -109.4425 273° West 389 448 34,000  Level Salt Lake Center
Mon 11:41:05 AM 40.1322 -109.5783 272° West 392 451 34,000  Level Salt Lake Center
Mon 11:42:07 AM 40.1375 -109.7350 273° West 388 447 34,000  Level Salt Lake Center
Mon 11:43:09 AM 40.1417 -109.8694 272° West 389 448 34,000 -774 Level Salt Lake Center
Mon 11:44:11 AM 40.1461 -110.0247 272° West 385 443 32,400 -1,488 Descending Salt Lake Center
Mon 11:45:14 AM 40.1497 -110.1558 272° West 380 437 30,900 -1,152 Descending Salt Lake Center
Mon 11:46:16 AM 40.1542 -110.3150 272° West 390 449 30,000 -435 Descending Salt Lake Center
Mon 11:47:18 AM 40.1578 -110.4528 272° West 395 455 30,000  Level Salt Lake Center
Mon 11:48:20 AM 40.1617 -110.6133 272° West 397 457 30,000  Level Salt Lake Center
Mon 11:49:22 AM 40.1642 -110.7528 271° West 399 459 30,000  Level Salt Lake Center
Mon 11:50:24 AM 40.1692 -110.9125 272° West 395 455 30,000 -726 Level Salt Lake Center
Mon 11:51:26 AM 40.1717 -111.0389 272° West 395 455 28,500 -1,984 Descending Salt Lake Center
Mon 11:52:28 AM 40.1747 -111.2111 271° West 394 453 25,900 -2,274 Descending Salt Lake Center
Mon 11:53:30 AM 40.1761 -111.3553 271° West 396 456 23,800 -1,984 Descending Salt Lake Center
Mon 11:54:32 AM 40.1783 -111.4950 271° West 385 443 21,800 -2,000 Descending Salt Lake Center
Mon 11:55:30 AM 40.1781 -111.6353 270° West 376 433 19,800 -1,794 Descending Salt Lake Center
Mon 11:56:19 AM 40.1986 -111.7489 283° West 377 434 18,600 -1,321 Descending Salt Lake Center
Mon 11:57:19 AM 40.2436 -111.8658 297° West 361 415 17,400 -992 Descending Salt Lake Center
Mon 11:58:20 AM 40.3028 -111.9694 307° West 378 435 16,600 -1,033 Descending Salt Lake Center
Mon 11:59:21 AM 40.3914 -112.0353 331° Northwest 363 418 15,300 -1,463 Descending Salt Lake Center
Mon 12:00:23 PM 40.4961 -112.0647 348° North 374 430 13,600 -1,820 Descending Salt Lake Center
Mon 12:01:23 PM 40.5997 -112.0778 355° North 366 421 11,600 -1,289 Descending Salt Lake Center
Mon 12:02:24 PM 40.6989 -112.0894 355° North 352 405 11,000 -344 Descending Salt Lake Center
Mon 12:03:25 PM 40.7911 -112.0981 356° North 310 357 10,900 -522 Descending Salt Lake Center
Mon 12:04:19 PM 40.8583 -112.0894 North 266 306 10,000 -1,241 Descending Salt Lake Center
Mon 12:04:52 PM 40.8853 -112.0836 North 253 291 9,100 -1,881 Descending Salt Lake Center
Mon 12:05:26 PM 40.9250 -112.0667 18° North 236 272 7,900 -695 Descending Salt Lake Center
Mon 12:06:27 PM 40.9386 -111.9825 78° East 221 254 8,000 -703 Climbing Salt Lake Center
Mon 12:07:34 PM 40.8961 -111.9631 161° South 156 180 6,400 -1,279 Descending Salt Lake Center
Mon 12:08:29 PM 40.8597 -111.9642 181° South 142 163 5,400 -837 Descending Salt Lake Center
Mon 12:09:00 PM 40.8447 -111.9628 176° South 135 155 5,200 -581 Descending Salt Lake Center
Mon 12:10:02 PM 40.8131 -111.9628 180° South 117 135 4,500 -677 Descending Salt Lake Center
Mon 12:12:00 PM 40.7833 -111.9667 North  Level FlightAware Approximate

Login

Don't have an account? Register now (free) for customized features, flight alerts, and more!